aviador You're here:

LEVC Decoded Metar

VALENCIA in SPAIN
Report Time2014-10-23 02:30:00
UTC Time2014-10-23 02:59:23
Flight Rules vfr VFR
WindVRB at 02 kt
Visibility9999 m
Phenomena:N/A
Clouds:N/A
Expected CloudBase > 1,200 ft AGL from Temp-Dew spread
CeilingNone
Temp12°C (ISA -3)
Dew Point09°C (82% RH)
AAT11.1°C
QNH1023 hPa
Density Alt-289 ft
Elevation203 ft
Report Wrong Elevation
Raw Report
METAR LEVC 230230Z VRB02KT CAVOK 12/09 Q1023 NOSIG=

Flight School in Barcelona

Extra information for LEVC:More info

Metar Taf Metar & Taf Last 4 Metars F.Rules Stats Wind Profile Meteogram Temp Stats Airport Information Weather charts Add Link Nearby VenuesMetar ALERT Operation Metar Decoded Social comments

Webcam Valencia